Time;durP1;ratioP1;P1;durP2;ratioP2;P2;SDS_P1;SDS_P2;PMS_P1;PMS_P2;Temp;Humidity;BMP_temperature;BMP_pressure;BME280_temperature;BME280_humidity;BME280_pressure;Samples;Min_cycle;Max_cycle;Signal;HPM_P1;HPM_P2
2021/09/01 00:01:15;;;;;;;;;;;16.00;99.90;;;;;;5057984;28;19916;-82
2021/09/01 00:03:41;;;;;;;;;;;16.00;99.90;;;;;;5072818;28;19988;-75
2021/09/01 00:06:06;;;;;;;;;;;16.00;99.90;;;;;;5070368;28;19919;-76
2021/09/01 00:08:32;;;;;;;;;;;16.00;99.90;;;;;;5066667;28;20366;-80
2021/09/01 00:10:58;;;;;;;;;;;16.00;99.90;;;;;;5070165;28;20207;-75
2021/09/01 00:13:24;;;;;;;;;;;16.00;99.90;;;;;;5067150;28;19909;-79
2021/09/01 00:15:49;;;;;;;;;;;16.00;99.90;;;;;;5064865;28;19916;-79
2021/09/01 00:18:15;;;;;;;;;;;16.00;99.90;;;;;;5065611;28;20220;-83
2021/09/01 00:20:40;;;;;;;;;;;16.00;99.90;;;;;;5054731;28;19909;-74
2021/09/01 00:23:06;;;;;;;;;;;16.00;99.90;;;;;;5066889;28;19909;-75
2021/09/01 00:25:31;;;;;;;;;;;15.90;99.90;;;;;;5067549;28;19909;-75
2021/09/01 00:27:57;;;;;;;;;;;16.00;99.90;;;;;;5054996;28;20251;-74
2021/09/01 00:30:22;;;;;;;;;;;16.00;99.90;;;;;;5054133;28;20003;-76
2021/09/01 00:32:48;;;;;;;;;;;15.90;99.90;;;;;;5068947;28;19913;-74
2021/09/01 00:35:14;;;;;;;;;;;15.80;99.90;;;;;;5058270;28;20394;-76
2021/09/01 00:37:39;;;;;;;;;;;15.80;99.90;;;;;;5059482;28;19916;-77
2021/09/01 00:40:05;;;;;;;;;;;15.80;99.90;;;;;;5048114;28;19909;-77
2021/09/01 00:42:31;;;;;;;;;;;15.70;99.90;;;;;;5061445;28;19908;-75
2021/09/01 00:44:57;;;;;;;;;;;15.70;99.90;;;;;;5057454;28;20258;-76
2021/09/01 00:47:22;;;;;;;;;;;15.60;99.90;;;;;;5042926;28;20003;-74
2021/09/01 00:49:50;;;;;;;;;;;15.60;99.90;;;;;;5074014;28;19967;-76
2021/09/01 00:52:15;;;;;;;;;;;15.70;99.90;;;;;;5040808;28;19913;-75
2021/09/01 00:54:41;;;;;;;;;;;15.70;99.90;;;;;;5043911;28;19908;-75
2021/09/01 00:57:08;;;;;;;;;;;15.70;99.90;;;;;;5068770;28;20121;-79
2021/09/01 00:59:35;;;;;;;;;;;15.60;99.90;;;;;;5071701;28;20593;-78
2021/09/01 01:02:01;;;;;;;;;;;15.60;99.90;;;;;;5054614;28;19920;-75
2021/09/01 01:04:27;;;;;;;;;;;15.60;99.90;;;;;;5071303;28;19912;-79
2021/09/01 01:06:56;;;;;;;;;;;15.50;99.90;;;;;;5069367;28;20300;-74
2021/09/01 01:09:21;;;;;;;;;;;15.50;99.90;;;;;;5065968;28;20053;-76
2021/09/01 01:12:02;;;;;;;;;;;15.50;99.90;;;;;;5070544;28;19920;-75
2021/09/01 01:14:28;;;;;;;;;;;15.60;99.90;;;;;;5070284;28;19917;-78
2021/09/01 01:16:54;;;;;;;;;;;15.60;99.90;;;;;;5053439;28;20502;-76
2021/09/01 01:19:20;;;;;;;;;;;15.70;99.90;;;;;;5056004;28;19919;-75
2021/09/01 01:21:46;;;;;;;;;;;15.70;99.90;;;;;;5075181;28;20192;-77
2021/09/01 01:24:12;;;;;;;;;;;15.70;99.90;;;;;;5073422;28;19999;-75
2021/09/01 01:26:37;;;;;;;;;;;15.60;99.90;;;;;;5059270;28;19999;-77
2021/09/01 01:29:05;;;;;;;;;;;15.60;99.90;;;;;;5059425;28;19950;-75
2021/09/01 01:31:30;;;;;;;;;;;15.60;99.90;;;;;;5071784;28;20224;-75
2021/09/01 01:33:56;;;;;;;;;;;15.50;99.90;;;;;;5077787;28;19954;-75
2021/09/01 01:36:24;;;;;;;;;;;15.60;99.90;;;;;;5057975;28;20188;-76
2021/09/01 01:38:50;;;;;;;;;;;15.60;99.90;;;;;;5058184;28;19917;-79
2021/09/01 01:41:15;;;;;;;;;;;15.60;99.90;;;;;;5050143;28;19909;-79
2021/09/01 01:43:45;;;;;;;;;;;15.50;99.90;;;;;;5074030;28;19909;-75
2021/09/01 01:46:11;;;;;;;;;;;15.50;99.90;;;;;;5057704;28;19917;-77
2021/09/01 01:48:37;;;;;;;;;;;15.50;99.90;;;;;;5052109;28;19913;-75
2021/09/01 01:51:03;;;;;;;;;;;15.40;99.90;;;;;;5068831;28;19966;-75
2021/09/01 01:53:29;;;;;;;;;;;15.50;99.90;;;;;;5068889;28;19963;-76
2021/09/01 01:55:57;;;;;;;;;;;15.50;99.90;;;;;;5075841;28;20216;-77
2021/09/01 01:58:23;;;;;;;;;;;15.50;99.90;;;;;;5076943;28;19908;-78
2021/09/01 02:00:49;;;;;;;;;;;15.50;99.90;;;;;;5084925;28;19920;-76
2021/09/01 02:03:15;;;;;;;;;;;15.50;99.90;;;;;;5096093;28;19916;-78
2021/09/01 02:05:41;;;;;;;;;;;15.50;99.90;;;;;;5095823;28;19923;-75
2021/09/01 02:08:06;;;;;;;;;;;15.50;99.90;;;;;;5096839;28;19917;-77
2021/09/01 02:10:32;;;;;;;;;;;15.50;99.90;;;;;;5093362;28;19999;-76
2021/09/01 02:12:57;;;;;;;;;;;15.40;99.90;;;;;;5078884;28;20203;-74
2021/09/01 02:15:23;;;;;;;;;;;15.50;99.90;;;;;;5093796;28;19908;-75
2021/09/01 02:17:49;;;;;;;;;;;15.40;99.90;;;;;;5077238;28;19923;-74
2021/09/01 02:20:15;;;;;;;;;;;15.40;99.90;;;;;;5077315;28;19920;-75
2021/09/01 02:22:41;;;;;;;;;;;15.40;99.90;;;;;;5095138;28;19916;-76
2021/09/01 02:25:07;;;;;;;;;;;15.40;99.90;;;;;;5095344;28;19915;-75
2021/09/01 02:27:33;;;;;;;;;;;15.40;99.90;;;;;;5078221;28;20211;-75
2021/09/01 02:29:59;;;;;;;;;;;15.30;99.90;;;;;;5072825;28;19930;-75
2021/09/01 02:32:24;;;;;;;;;;;15.30;99.90;;;;;;5089866;28;20208;-74
2021/09/01 02:34:50;;;;;;;;;;;15.30;99.90;;;;;;5071023;28;20310;-76
2021/09/01 02:37:15;;;;;;;;;;;15.30;99.90;;;;;;5095576;28;19923;-75
2021/09/01 02:39:41;;;;;;;;;;;15.30;99.90;;;;;;5096386;28;19931;-75
2021/09/01 02:42:07;;;;;;;;;;;15.30;99.90;;;;;;5090968;28;19970;-76
2021/09/01 02:44:32;;;;;;;;;;;15.30;99.90;;;;;;5095318;28;19909;-76
2021/09/01 02:46:58;;;;;;;;;;;15.30;99.90;;;;;;5096624;28;20003;-76
2021/09/01 02:49:23;;;;;;;;;;;15.30;99.90;;;;;;5076895;28;20196;-75
2021/09/01 02:51:49;;;;;;;;;;;15.30;99.90;;;;;;5094400;28;20222;-75
2021/09/01 02:54:15;;;;;;;;;;;15.30;99.90;;;;;;5078183;28;19909;-75
2021/09/01 02:56:40;;;;;;;;;;;15.20;99.90;;;;;;5095172;28;19908;-74
2021/09/01 02:59:06;;;;;;;;;;;15.20;99.90;;;;;;5088281;28;20004;-75
2021/09/01 03:01:31;;;;;;;;;;;15.20;99.90;;;;;;5095479;28;19920;-75
2021/09/01 03:03:57;;;;;;;;;;;15.20;99.90;;;;;;5086921;28;19942;-75
2021/09/01 03:06:23;;;;;;;;;;;15.30;99.90;;;;;;5077904;28;19930;-75
2021/09/01 03:08:48;;;;;;;;;;;15.30;99.90;;;;;;5076378;28;19920;-76
2021/09/01 03:11:14;;;;;;;;;;;15.30;99.90;;;;;;5071983;28;19920;-75
2021/09/01 03:13:39;;;;;;;;;;;15.30;99.90;;;;;;5095069;28;19923;-75
2021/09/01 03:16:05;;;;;;;;;;;15.20;99.90;;;;;;5077422;28;19919;-76
2021/09/01 03:18:30;;;;;;;;;;;15.20;99.90;;;;;;5095003;28;19912;-74
2021/09/01 03:20:56;;;;;;;;;;;15.30;99.90;;;;;;5094757;28;19920;-74
2021/09/01 03:23:21;;;;;;;;;;;15.20;99.90;;;;;;5092595;28;19915;-78
2021/09/01 03:25:47;;;;;;;;;;;15.20;99.90;;;;;;5095186;28;20367;-78
2021/09/01 03:28:12;;;;;;;;;;;15.20;99.90;;;;;;5094698;28;20597;-75
2021/09/01 03:30:38;;;;;;;;;;;15.30;99.90;;;;;;5076568;28;20218;-74
2021/09/01 03:33:04;;;;;;;;;;;15.40;99.90;;;;;;5091801;28;19963;-78
2021/09/01 03:35:29;;;;;;;;;;;15.50;99.90;;;;;;5093447;28;19919;-80
2021/09/01 03:37:55;;;;;;;;;;;15.50;99.90;;;;;;5094542;28;19912;-75
2021/09/01 03:40:21;;;;;;;;;;;15.60;99.90;;;;;;5094723;28;19912;-76
2021/09/01 03:42:46;;;;;;;;;;;15.50;99.90;;;;;;5093209;28;20265;-74
2021/09/01 03:45:12;;;;;;;;;;;15.50;99.90;;;;;;5094399;28;19938;-75
2021/09/01 03:47:38;;;;;;;;;;;15.50;99.90;;;;;;5087133;28;19942;-75
2021/09/01 03:50:05;;;;;;;;;;;15.50;99.90;;;;;;5094195;28;20226;-76
2021/09/01 03:52:30;;;;;;;;;;;15.50;99.90;;;;;;5094581;28;19948;-74
2021/09/01 03:54:56;;;;;;;;;;;15.60;99.90;;;;;;5073213;28;19963;-75
2021/09/01 03:57:22;;;;;;;;;;;15.50;99.90;;;;;;5091222;28;19994;-78
2021/09/01 03:59:47;;;;;;;;;;;15.60;99.90;;;;;;5094184;28;19976;-78
2021/09/01 04:02:13;;;;;;;;;;;15.50;99.90;;;;;;5074332;28;20295;-78
2021/09/01 04:04:38;;;;;;;;;;;15.60;99.90;;;;;;5056231;28;19915;-76
2021/09/01 04:07:04;;;;;;;;;;;15.50;99.90;;;;;;5073429;28;19947;-75
2021/09/01 04:09:30;;;;;;;;;;;15.50;99.90;;;;;;5070475;28;19928;-77
2021/09/01 04:11:56;;;;;;;;;;;15.40;99.90;;;;;;5074100;28;19944;-77
2021/09/01 04:14:21;;;;;;;;;;;15.40;99.90;;;;;;5074055;28;19919;-75
2021/09/01 04:16:47;;;;;;;;;;;15.40;99.90;;;;;;5054047;28;20263;-76
2021/09/01 04:19:12;;;;;;;;;;;15.40;99.90;;;;;;5068475;28;19912;-75
2021/09/01 04:21:38;;;;;;;;;;;15.40;99.90;;;;;;5073936;28;19921;-75
2021/09/01 04:24:04;;;;;;;;;;;15.40;99.90;;;;;;5049051;28;19912;-77
2021/09/01 04:26:29;;;;;;;;;;;15.40;99.90;;;;;;5073276;28;19917;-78
2021/09/01 04:28:55;;;;;;;;;;;15.50;99.90;;;;;;5050001;28;19912;-79
2021/09/01 04:31:20;;;;;;;;;;;15.60;99.90;;;;;;5073489;28;19915;-75
2021/09/01 04:33:46;;;;;;;;;;;15.60;99.90;;;;;;5073934;28;19931;-79
2021/09/01 04:36:11;;;;;;;;;;;15.70;99.90;;;;;;5049924;28;19919;-76
2021/09/01 04:38:37;;;;;;;;;;;15.70;99.90;;;;;;5072327;28;20307;-76
2021/09/01 04:41:02;;;;;;;;;;;15.70;99.90;;;;;;5072745;28;20022;-74
2021/09/01 04:43:28;;;;;;;;;;;15.70;99.90;;;;;;5068403;28;20286;-77
2021/09/01 04:45:53;;;;;;;;;;;15.70;99.90;;;;;;5073241;28;19916;-74
2021/09/01 04:48:19;;;;;;;;;;;15.60;99.90;;;;;;5064139;28;19942;-75
2021/09/01 04:50:45;;;;;;;;;;;15.60;99.90;;;;;;5075131;28;19920;-76
2021/09/01 04:53:10;;;;;;;;;;;15.60;99.90;;;;;;5073453;28;19913;-79
2021/09/01 04:55:36;;;;;;;;;;;15.50;99.90;;;;;;5049100;28;19920;-77
2021/09/01 04:58:01;;;;;;;;;;;15.50;99.90;;;;;;5074503;28;20307;-75
2021/09/01 05:00:27;;;;;;;;;;;15.50;99.90;;;;;;5082766;28;19912;-78
2021/09/01 05:02:53;;;;;;;;;;;15.50;99.90;;;;;;5098327;28;20223;-75
2021/09/01 05:05:18;;;;;;;;;;;15.50;99.90;;;;;;5097045;28;19977;-76
2021/09/01 05:07:44;;;;;;;;;;;15.40;99.90;;;;;;5094260;28;19925;-76
2021/09/01 05:10:10;;;;;;;;;;;15.40;99.90;;;;;;5096738;28;20565;-75
2021/09/01 05:12:35;;;;;;;;;;;15.50;99.90;;;;;;5091049;28;19923;-76
2021/09/01 05:15:01;;;;;;;;;;;15.50;99.90;;;;;;5098351;28;20221;-75
2021/09/01 05:17:27;;;;;;;;;;;15.50;99.90;;;;;;5097009;28;19916;-75
2021/09/01 05:19:52;;;;;;;;;;;15.60;99.90;;;;;;5077986;28;19995;-78
2021/09/01 05:22:19;;;;;;;;;;;15.60;99.90;;;;;;5093290;28;19921;-77
2021/09/01 05:25:05;;;;;;;;;;;15.60;99.90;;;;;;5091251;28;19916;-78
2021/09/01 05:27:31;;;;;;;;;;;15.60;99.90;;;;;;5079252;28;19927;-78
2021/09/01 05:29:57;;;;;;;;;;;15.60;99.90;;;;;;5091975;28;19939;-75
2021/09/01 05:32:24;;;;;;;;;;;15.60;99.90;;;;;;5085923;28;20015;-78
2021/09/01 05:34:51;;;;;;;;;;;15.60;99.90;;;;;;5076329;28;19912;-74
2021/09/01 05:37:17;;;;;;;;;;;15.60;99.90;;;;;;5087675;28;20006;-75
2021/09/01 05:39:44;;;;;;;;;;;15.60;99.90;;;;;;5075256;28;19964;-73
2021/09/01 05:42:13;;;;;;;;;;;15.60;99.90;;;;;;5076603;28;19908;-74
2021/09/01 05:44:39;;;;;;;;;;;15.60;99.90;;;;;;5094181;28;20007;-75
2021/09/01 05:47:06;;;;;;;;;;;15.60;99.90;;;;;;5089541;28;19912;-77
2021/09/01 05:49:32;;;;;;;;;;;15.70;99.90;;;;;;5089226;28;19939;-79
2021/09/01 05:51:58;;;;;;;;;;;15.70;99.90;;;;;;5073920;28;19916;-78
2021/09/01 05:54:23;;;;;;;;;;;15.60;99.90;;;;;;5088937;28;19919;-77
2021/09/01 05:56:51;;;;;;;;;;;15.60;99.90;;;;;;5092361;28;20256;-75
2021/09/01 05:59:17;;;;;;;;;;;15.60;99.90;;;;;;5092846;28;19923;-77
2021/09/01 06:01:48;;;;;;;;;;;15.60;99.90;;;;;;5075318;28;20319;-74
2021/09/01 06:04:22;;;;;;;;;;;15.60;99.90;;;;;;5090831;28;19919;-74
2021/09/01 06:06:49;;;;;;;;;;;15.60;99.90;;;;;;5094522;28;19912;-75
2021/09/01 06:09:15;;;;;;;;;;;15.60;99.90;;;;;;5092038;28;19924;-78
2021/09/01 06:11:43;;;;;;;;;;;15.60;99.90;;;;;;5092572;28;19927;-76
2021/09/01 06:14:08;;;;;;;;;;;15.60;99.90;;;;;;5092407;28;19916;-76
2021/09/01 06:16:34;;;;;;;;;;;15.50;99.90;;;;;;5091153;28;20334;-76
2021/09/01 06:18:59;;;;;;;;;;;15.60;99.90;;;;;;5076093;28;20011;-74
2021/09/01 06:21:26;;;;;;;;;;;15.60;99.90;;;;;;5091421;28;19913;-75
2021/09/01 06:23:53;;;;;;;;;;;15.60;99.90;;;;;;5076110;28;19916;-77
2021/09/01 06:26:19;;;;;;;;;;;15.60;99.90;;;;;;5074985;28;19913;-75
2021/09/01 06:28:44;;;;;;;;;;;15.70;99.90;;;;;;5093323;28;19927;-75
2021/09/01 06:31:10;;;;;;;;;;;15.70;99.90;;;;;;5092730;28;20003;-75
2021/09/01 06:33:35;;;;;;;;;;;15.70;99.90;;;;;;5074338;28;19916;-76
2021/09/01 06:36:02;;;;;;;;;;;15.80;99.90;;;;;;5093523;28;19919;-78
2021/09/01 06:38:27;;;;;;;;;;;15.80;99.90;;;;;;5090668;28;19960;-75
2021/09/01 06:40:53;;;;;;;;;;;15.90;99.90;;;;;;5092579;28;20328;-78
2021/09/01 06:43:18;;;;;;;;;;;15.90;99.90;;;;;;5092987;28;19912;-76
2021/09/01 06:45:46;;;;;;;;;;;15.90;99.90;;;;;;5092856;28;19923;-77
2021/09/01 06:48:12;;;;;;;;;;;16.00;99.90;;;;;;5090087;28;19919;-75
2021/09/01 06:50:37;;;;;;;;;;;16.10;99.90;;;;;;5073919;28;19916;-79
2021/09/01 06:53:03;;;;;;;;;;;16.00;99.90;;;;;;5072097;28;19919;-75
2021/09/01 06:55:29;;;;;;;;;;;16.10;99.90;;;;;;5089154;28;20371;-76
2021/09/01 06:57:54;;;;;;;;;;;16.10;99.90;;;;;;5088872;28;19916;-79
2021/09/01 07:00:20;;;;;;;;;;;16.10;99.90;;;;;;5093079;28;19942;-75
2021/09/01 07:02:46;;;;;;;;;;;16.20;99.90;;;;;;5076263;28;19969;-76
2021/09/01 07:05:14;;;;;;;;;;;16.30;99.90;;;;;;5076369;28;19912;-75
2021/09/01 07:07:43;;;;;;;;;;;16.30;99.90;;;;;;5074217;28;19912;-78
2021/09/01 07:10:09;;;;;;;;;;;16.30;99.90;;;;;;5075316;28;20034;-76
2021/09/01 07:12:35;;;;;;;;;;;16.40;99.90;;;;;;5093955;28;20311;-75
2021/09/01 07:15:01;;;;;;;;;;;16.30;99.90;;;;;;5094437;28;20049;-74
2021/09/01 07:17:26;;;;;;;;;;;16.30;99.90;;;;;;5076170;28;19924;-77
2021/09/01 07:19:52;;;;;;;;;;;16.20;99.90;;;;;;5076665;28;19908;-75
2021/09/01 07:22:17;;;;;;;;;;;16.20;99.90;;;;;;5094221;28;19916;-78
2021/09/01 07:24:43;;;;;;;;;;;16.20;99.90;;;;;;5094751;28;19912;-76
2021/09/01 07:27:09;;;;;;;;;;;16.20;99.90;;;;;;5091724;28;19995;-77
2021/09/01 07:29:34;;;;;;;;;;;16.20;99.90;;;;;;5088688;28;19924;-78
2021/09/01 07:32:00;;;;;;;;;;;16.20;99.90;;;;;;5066884;28;20018;-75
2021/09/01 07:34:25;;;;;;;;;;;16.30;99.90;;;;;;5064272;28;20043;-76
2021/09/01 07:36:51;;;;;;;;;;;16.30;99.90;;;;;;5082462;28;19916;-79
2021/09/01 07:39:17;;;;;;;;;;;16.30;99.90;;;;;;5081932;28;20300;-78
2021/09/01 07:41:42;;;;;;;;;;;16.40;99.90;;;;;;5082055;28;19970;-79
2021/09/01 07:44:08;;;;;;;;;;;16.40;99.90;;;;;;5081814;28;19920;-79
2021/09/01 07:46:34;;;;;;;;;;;16.50;99.90;;;;;;5083190;28;19915;-79
2021/09/01 07:49:01;;;;;;;;;;;16.50;99.90;;;;;;5062283;28;20023;-77
2021/09/01 07:51:27;;;;;;;;;;;16.60;99.90;;;;;;5082284;28;19978;-77
2021/09/01 07:53:52;;;;;;;;;;;16.70;99.90;;;;;;5084198;28;20563;-75
2021/09/01 07:56:18;;;;;;;;;;;16.70;99.90;;;;;;5072752;28;19971;-79
2021/09/01 07:58:43;;;;;;;;;;;16.70;99.90;;;;;;5095062;28;19919;-74
2021/09/01 08:01:09;;;;;;;;;;;16.70;99.90;;;;;;5093546;28;19920;-75
2021/09/01 08:03:34;;;;;;;;;;;16.70;99.90;;;;;;5094006;28;19923;-75
2021/09/01 08:06:02;;;;;;;;;;;16.70;99.90;;;;;;5094786;28;19966;-76
2021/09/01 08:08:28;;;;;;;;;;;16.80;99.90;;;;;;5075570;28;20277;-75
2021/09/01 08:10:54;;;;;;;;;;;16.80;99.90;;;;;;5072511;28;19927;-74
2021/09/01 08:13:19;;;;;;;;;;;16.70;99.90;;;;;;5066960;28;19931;-77
2021/09/01 08:15:45;;;;;;;;;;;16.70;99.90;;;;;;5093829;28;20281;-79
2021/09/01 08:18:10;;;;;;;;;;;16.70;99.90;;;;;;5087373;28;19908;-74
2021/09/01 08:20:36;;;;;;;;;;;16.70;99.90;;;;;;5075345;28;20311;-77
2021/09/01 08:23:01;;;;;;;;;;;16.70;99.90;;;;;;5094107;28;19912;-79
2021/09/01 08:25:27;;;;;;;;;;;16.70;99.90;;;;;;5094391;28;19954;-79
2021/09/01 08:27:52;;;;;;;;;;;16.60;99.90;;;;;;5072508;28;19912;-77
2021/09/01 08:30:18;;;;;;;;;;;16.60;99.90;;;;;;5091573;28;19920;-75
2021/09/01 08:32:44;;;;;;;;;;;16.60;99.90;;;;;;5073121;28;20021;-82
2021/09/01 08:35:09;;;;;;;;;;;16.60;99.90;;;;;;5093250;28;19963;-75
2021/09/01 08:37:35;;;;;;;;;;;16.60;99.90;;;;;;5094431;28;19912;-78
2021/09/01 08:40:02;;;;;;;;;;;16.70;99.90;;;;;;5093757;28;20383;-81
2021/09/01 08:42:27;;;;;;;;;;;16.70;99.90;;;;;;5093381;28;19961;-76
2021/09/01 08:44:53;;;;;;;;;;;16.70;99.90;;;;;;5073418;28;19908;-75
2021/09/01 08:47:19;;;;;;;;;;;16.80;99.90;;;;;;5091351;28;19912;-77
2021/09/01 08:49:45;;;;;;;;;;;16.70;99.90;;;;;;5073739;28;19920;-80
2021/09/01 08:52:11;;;;;;;;;;;16.70;99.90;;;;;;5075107;28;20332;-79
2021/09/01 08:54:37;;;;;;;;;;;16.80;99.90;;;;;;5086239;28;19913;-75
2021/09/01 08:57:02;;;;;;;;;;;16.80;99.90;;;;;;5090173;28;19916;-75
2021/09/01 08:59:28;;;;;;;;;;;16.90;99.90;;;;;;5087595;28;19924;-78
2021/09/01 09:01:55;;;;;;;;;;;16.80;99.90;;;;;;5087183;28;19912;-79
2021/09/01 09:04:27;;;;;;;;;;;16.80;99.90;;;;;;5086092;28;19996;-75
2021/09/01 09:06:55;;;;;;;;;;;16.70;99.90;;;;;;5090696;28;19947;-77
2021/09/01 09:09:25;;;;;;;;;;;16.70;99.90;;;;;;5087910;28;20010;-79
2021/09/01 09:11:51;;;;;;;;;;;16.70;99.90;;;;;;5083764;28;19908;-75
2021/09/01 09:14:17;;;;;;;;;;;16.70;99.90;;;;;;5081858;28;19913;-78
2021/09/01 09:16:43;;;;;;;;;;;16.70;99.90;;;;;;5071449;28;19908;-75
2021/09/01 09:19:09;;;;;;;;;;;16.70;99.90;;;;;;5087274;28;20056;-75
2021/09/01 09:21:35;;;;;;;;;;;16.70;99.90;;;;;;5087991;28;19913;-76
2021/09/01 09:24:16;;;;;;;;;;;16.70;99.90;;;;;;5091936;28;19912;-75
2021/09/01 09:26:42;;;;;;;;;;;16.80;99.90;;;;;;5084873;28;19971;-78
2021/09/01 09:29:12;;;;;;;;;;;16.80;99.90;;;;;;5074047;28;19916;-77
2021/09/01 09:31:39;;;;;;;;;;;16.80;99.90;;;;;;5066830;28;20310;-76
2021/09/01 09:34:08;;;;;;;;;;;16.80;99.90;;;;;;5081100;28;19957;-74
2021/09/01 09:36:35;;;;;;;;;;;16.90;99.90;;;;;;5087296;28;19920;-75
2021/09/01 09:39:00;;;;;;;;;;;16.90;99.90;;;;;;5090141;28;20310;-75
2021/09/01 09:41:28;;;;;;;;;;;17.00;99.90;;;;;;5091940;28;19943;-76
2021/09/01 09:43:58;;;;;;;;;;;17.10;99.90;;;;;;5075599;28;19912;-79
2021/09/01 09:46:24;;;;;;;;;;;17.20;99.90;;;;;;5092119;28;19973;-79
2021/09/01 09:48:50;;;;;;;;;;;17.20;99.90;;;;;;5076693;28;20315;-78
2021/09/01 09:51:17;;;;;;;;;;;17.40;99.90;;;;;;5093511;28;19912;-76
2021/09/01 09:53:44;;;;;;;;;;;17.50;99.90;;;;;;5090425;28;19923;-78
2021/09/01 09:56:13;;;;;;;;;;;17.50;99.90;;;;;;5075411;28;19912;-79
2021/09/01 09:58:52;;;;;;;;;;;17.50;99.90;;;;;;5094705;28;19955;-76
2021/09/01 10:01:18;;;;;;;;;;;17.60;99.90;;;;;;5090112;28;19930;-79
2021/09/01 10:03:45;;;;;;;;;;;17.70;99.90;;;;;;5073122;28;19923;-79
2021/09/01 10:06:13;;;;;;;;;;;17.80;99.90;;;;;;5086027;28;19920;-80
2021/09/01 10:08:39;;;;;;;;;;;17.90;99.90;;;;;;5073346;28;19924;-80
2021/09/01 10:11:11;;;;;;;;;;;17.90;99.90;;;;;;5075496;28;19927;-79
2021/09/01 10:13:41;;;;;;;;;;;17.90;99.90;;;;;;5072233;28;20239;-75
2021/09/01 10:16:12;;;;;;;;;;;17.90;99.90;;;;;;5090232;28;19923;-80
2021/09/01 10:18:39;;;;;;;;;;;17.90;99.90;;;;;;5089201;28;20150;-78
2021/09/01 10:21:06;;;;;;;;;;;17.80;99.90;;;;;;5074508;28;19938;-79
2021/09/01 10:23:50;;;;;;;;;;;17.80;99.90;;;;;;5096195;28;19916;-76
2021/09/01 10:26:21;;;;;;;;;;;17.60;99.90;;;;;;5074224;28;19916;-75
2021/09/01 10:28:47;;;;;;;;;;;17.50;99.90;;;;;;5090492;28;19920;-76
2021/09/01 10:31:15;;;;;;;;;;;17.40;99.90;;;;;;5085988;28;19922;-79
2021/09/01 10:33:42;;;;;;;;;;;17.30;99.90;;;;;;5070421;28;20271;-79
2021/09/01 10:36:36;;;;;;;;;;;17.30;99.90;;;;;;5088352;28;20021;-75
2021/09/01 10:39:08;;;;;;;;;;;17.20;99.90;;;;;;5075781;28;19921;-75
2021/09/01 10:41:34;;;;;;;;;;;17.20;99.90;;;;;;5091187;28;20322;-77
2021/09/01 10:44:17;;;;;;;;;;;17.20;99.90;;;;;;5084138;28;19930;-79
2021/09/01 10:46:53;;;;;;;;;;;17.20;99.90;;;;;;5072548;28;19958;-74
2021/09/01 10:49:24;;;;;;;;;;;17.20;99.90;;;;;;5087087;28;19924;-77
2021/09/01 10:51:54;;;;;;;;;;;17.20;99.90;;;;;;5087328;28;19913;-79
2021/09/01 10:54:28;;;;;;;;;;;17.20;99.90;;;;;;5092516;28;19916;-80
2021/09/01 10:56:53;;;;;;;;;;;17.20;99.90;;;;;;5084015;28;20386;-80
2021/09/01 10:59:26;;;;;;;;;;;17.30;99.90;;;;;;5088733;28;20022;-80
2021/09/01 11:02:08;;;;;;;;;;;17.40;99.90;;;;;;5067895;28;20219;-80
2021/09/01 11:04:33;;;;;;;;;;;17.40;99.90;;;;;;5087708;28;19912;-75
2021/09/01 11:07:03;;;;;;;;;;;17.50;99.90;;;;;;5070681;28;19942;-79
2021/09/01 11:09:28;;;;;;;;;;;17.50;99.90;;;;;;5091117;28;19932;-79
2021/09/01 11:11:55;;;;;;;;;;;17.70;99.90;;;;;;5098469;28;19912;-79
2021/09/01 11:14:33;;;;;;;;;;;17.80;99.90;;;;;;5069092;28;19916;-79
2021/09/01 11:17:00;;;;;;;;;;;17.90;99.90;;;;;;5086622;28;19924;-75
2021/09/01 11:19:26;;;;;;;;;;;18.00;99.90;;;;;;5090193;28;19923;-76
2021/09/01 11:21:51;;;;;;;;;;;18.10;99.90;;;;;;5072147;28;19969;-75
2021/09/01 11:24:18;;;;;;;;;;;18.20;99.90;;;;;;5092872;28;19965;-75
2021/09/01 11:26:45;;;;;;;;;;;18.30;99.90;;;;;;5087538;28;19912;-79
2021/09/01 11:29:11;;;;;;;;;;;18.20;99.90;;;;;;5084714;28;19919;-78
2021/09/01 11:31:44;;;;;;;;;;;18.30;99.90;;;;;;5084775;28;20029;-79
2021/09/01 11:34:12;;;;;;;;;;;18.30;99.90;;;;;;5086016;28;19921;-80
2021/09/01 11:36:38;;;;;;;;;;;18.40;99.90;;;;;;5091219;28;19912;-79
2021/09/01 11:39:03;;;;;;;;;;;18.40;99.90;;;;;;5078092;28;20524;-78
2021/09/01 11:41:29;;;;;;;;;;;18.40;99.90;;;;;;5062679;28;19947;-79
2021/09/01 11:43:59;;;;;;;;;;;18.40;99.90;;;;;;5089954;28;20334;-80
2021/09/01 11:46:25;;;;;;;;;;;18.50;99.90;;;;;;5063380;28;19981;-74
2021/09/01 11:48:50;;;;;;;;;;;18.50;99.90;;;;;;5088367;28;20281;-80
2021/09/01 11:51:19;;;;;;;;;;;18.50;99.90;;;;;;5083328;28;19916;-77
2021/09/01 11:53:45;;;;;;;;;;;18.40;99.90;;;;;;5080520;28;19922;-79
2021/09/01 11:56:11;;;;;;;;;;;18.50;99.90;;;;;;5083346;28;19916;-75
2021/09/01 11:58:36;;;;;;;;;;;18.60;99.90;;;;;;5082577;28;19966;-75
2021/09/01 12:01:06;;;;;;;;;;;18.70;99.90;;;;;;5081674;28;19928;-79
2021/09/01 12:03:32;;;;;;;;;;;18.60;99.90;;;;;;5082686;28;19954;-76
2021/09/01 12:06:10;;;;;;;;;;;18.70;99.90;;;;;;5081128;28;19923;-81
2021/09/01 12:08:46;;;;;;;;;;;18.70;99.90;;;;;;5080673;28;19935;-79
2021/09/01 12:11:13;;;;;;;;;;;18.70;99.90;;;;;;5062040;28;19982;-80
2021/09/01 12:13:40;;;;;;;;;;;18.70;99.90;;;;;;5078683;28;20002;-79
2021/09/01 12:16:05;;;;;;;;;;;18.80;99.90;;;;;;5061375;28;19920;-79
2021/09/01 12:18:50;;;;;;;;;;;18.70;99.90;;;;;;5070850;28;19925;-76
2021/09/01 12:21:16;;;;;;;;;;;18.70;99.90;;;;;;5086049;28;19912;-81
2021/09/01 12:23:41;;;;;;;;;;;18.50;99.90;;;;;;5090500;28;19916;-79
2021/09/01 12:26:07;;;;;;;;;;;18.50;99.90;;;;;;5093726;28;19912;-80
2021/09/01 12:28:43;;;;;;;;;;;18.40;99.90;;;;;;5096116;28;20299;-76
2021/09/01 12:31:18;;;;;;;;;;;18.40;99.90;;;;;;5079299;28;19920;-79
2021/09/01 12:33:43;;;;;;;;;;;18.30;99.90;;;;;;5090441;28;19994;-81
2021/09/01 12:36:09;;;;;;;;;;;18.30;99.90;;;;;;5089427;28;19916;-76
2021/09/01 12:38:34;;;;;;;;;;;18.30;99.90;;;;;;5094343;28;19915;-80
2021/09/01 12:41:00;;;;;;;;;;;18.30;99.90;;;;;;5073731;28;20023;-79
2021/09/01 12:43:26;;;;;;;;;;;18.30;99.90;;;;;;5071287;28;20273;-75
2021/09/01 12:46:01;;;;;;;;;;;18.20;99.90;;;;;;5090879;28;20038;-80
2021/09/01 12:48:34;;;;;;;;;;;18.20;99.90;;;;;;5085740;28;19916;-79
2021/09/01 12:51:01;;;;;;;;;;;18.20;99.90;;;;;;5066399;28;19916;-78
2021/09/01 12:53:26;;;;;;;;;;;18.30;99.90;;;;;;5088296;28;19912;-80
2021/09/01 12:55:53;;;;;;;;;;;18.30;99.90;;;;;;5089712;28;19923;-80
2021/09/01 12:58:19;;;;;;;;;;;18.30;99.90;;;;;;5073167;28;19916;-78
2021/09/01 13:00:45;;;;;;;;;;;18.30;99.90;;;;;;5071413;28;19920;-77
2021/09/01 13:03:11;;;;;;;;;;;18.40;99.90;;;;;;5090534;28;20314;-79
2021/09/01 13:05:37;;;;;;;;;;;18.40;99.90;;;;;;5078452;28;19924;-75
2021/09/01 13:08:03;;;;;;;;;;;18.40;99.90;;;;;;5066784;28;20358;-81
2021/09/01 13:10:29;;;;;;;;;;;18.40;99.90;;;;;;5093807;28;20045;-77
2021/09/01 13:12:56;;;;;;;;;;;18.50;99.90;;;;;;5077281;28;20002;-82
2021/09/01 13:15:22;;;;;;;;;;;18.40;99.90;;;;;;5076247;28;19912;-79
2021/09/01 13:17:48;;;;;;;;;;;18.50;99.90;;;;;;5095528;28;20218;-82
2021/09/01 13:20:15;;;;;;;;;;;18.60;99.90;;;;;;5094029;28;19916;-75
2021/09/01 13:22:40;;;;;;;;;;;18.50;99.90;;;;;;5090393;28;19986;-79
2021/09/01 13:25:07;;;;;;;;;;;18.60;99.90;;;;;;5092211;28;19992;-82
2021/09/01 13:27:33;;;;;;;;;;;18.50;99.90;;;;;;5095420;28;20252;-81
2021/09/01 13:29:58;;;;;;;;;;;18.50;99.90;;;;;;5093464;28;21502;-80
2021/09/01 13:32:24;;;;;;;;;;;18.50;99.90;;;;;;5095143;28;19933;-75
2021/09/01 13:34:50;;;;;;;;;;;18.50;99.90;;;;;;5068829;28;19962;-75
2021/09/01 13:37:16;;;;;;;;;;;18.60;99.90;;;;;;5092239;28;19912;-80
2021/09/01 13:39:41;;;;;;;;;;;18.50;99.90;;;;;;5076244;28;20277;-79
2021/09/01 13:42:07;;;;;;;;;;;18.50;99.90;;;;;;5083486;28;19930;-81
2021/09/01 13:44:32;;;;;;;;;;;18.50;99.90;;;;;;5086720;28;19913;-80
2021/09/01 13:46:58;;;;;;;;;;;18.50;99.90;;;;;;5093551;28;20007;-75
2021/09/01 13:49:24;;;;;;;;;;;18.60;99.90;;;;;;5088539;28;19920;-81
2021/09/01 13:51:49;;;;;;;;;;;18.60;99.90;;;;;;5094837;28;20022;-80
2021/09/01 13:54:15;;;;;;;;;;;18.60;99.90;;;;;;5078264;28;19963;-80
2021/09/01 13:56:40;;;;;;;;;;;18.70;99.90;;;;;;5110565;28;19935;-75
2021/09/01 13:59:06;;;;;;;;;;;18.70;99.90;;;;;;5085032;28;19924;-76
2021/09/01 14:01:32;;;;;;;;;;;18.70;99.90;;;;;;5072209;28;19912;-78
2021/09/01 14:03:58;;;;;;;;;;;18.80;99.90;;;;;;5095671;28;19951;-81
2021/09/01 14:06:23;;;;;;;;;;;18.80;99.90;;;;;;5076998;28;19913;-80
2021/09/01 14:08:49;;;;;;;;;;;18.80;99.90;;;;;;5087592;28;20039;-81
2021/09/01 14:11:15;;;;;;;;;;;18.70;99.90;;;;;;5093715;28;19919;-78
2021/09/01 14:13:40;;;;;;;;;;;18.70;99.90;;;;;;5094341;28;20360;-81